sensor_id;sensor_type;location;lat;lon;timestamp;P1;durP1;ratioP1;P2;durP2;ratioP2
10132;SDS011;5106;50.926;7.080;2024-02-21T00:01:49;9.20;;;4.75;;
10132;SDS011;5106;50.926;7.080;2024-02-21T00:04:15;11.70;;;4.93;;
10132;SDS011;5106;50.926;7.080;2024-02-21T00:06:41;9.02;;;4.47;;
10132;SDS011;5106;50.926;7.080;2024-02-21T00:09:06;7.60;;;3.97;;
10132;SDS011;5106;50.926;7.080;2024-02-21T00:11:34;8.90;;;3.65;;
10132;SDS011;5106;50.926;7.080;2024-02-21T00:14:00;10.10;;;4.63;;
10132;SDS011;5106;50.926;7.080;2024-02-21T00:16:25;8.35;;;4.63;;
10132;SDS011;5106;50.926;7.080;2024-02-21T00:18:51;12.35;;;4.78;;
10132;SDS011;5106;50.926;7.080;2024-02-21T00:21:17;8.27;;;4.38;;
10132;SDS011;5106;50.926;7.080;2024-02-21T00:23:43;7.30;;;4.70;;
10132;SDS011;5106;50.926;7.080;2024-02-21T00:26:14;9.68;;;4.82;;
10132;SDS011;5106;50.926;7.080;2024-02-21T00:28:39;9.07;;;4.55;;
10132;SDS011;5106;50.926;7.080;2024-02-21T00:31:05;10.73;;;4.88;;
10132;SDS011;5106;50.926;7.080;2024-02-21T00:33:30;10.45;;;4.70;;
10132;SDS011;5106;50.926;7.080;2024-02-21T00:35:56;7.72;;;4.32;;
10132;SDS011;5106;50.926;7.080;2024-02-21T00:38:22;7.78;;;4.25;;
10132;SDS011;5106;50.926;7.080;2024-02-21T00:40:47;8.45;;;4.30;;
10132;SDS011;5106;50.926;7.080;2024-02-21T00:43:13;11.20;;;4.90;;
10132;SDS011;5106;50.926;7.080;2024-02-21T00:45:39;9.57;;;4.88;;
10132;SDS011;5106;50.926;7.080;2024-02-21T00:48:04;9.88;;;4.68;;
10132;SDS011;5106;50.926;7.080;2024-02-21T00:50:30;7.80;;;4.80;;
10132;SDS011;5106;50.926;7.080;2024-02-21T00:52:56;7.13;;;4.70;;
10132;SDS011;5106;50.926;7.080;2024-02-21T00:55:21;12.40;;;4.30;;
10132;SDS011;5106;50.926;7.080;2024-02-21T00:57:47;8.65;;;4.38;;
10132;SDS011;5106;50.926;7.080;2024-02-21T01:00:13;11.77;;;4.70;;
10132;SDS011;5106;50.926;7.080;2024-02-21T01:02:39;9.13;;;4.53;;
10132;SDS011;5106;50.926;7.080;2024-02-21T01:05:04;12.00;;;4.35;;
10132;SDS011;5106;50.926;7.080;2024-02-21T01:07:30;9.63;;;4.53;;
10132;SDS011;5106;50.926;7.080;2024-02-21T01:09:56;9.17;;;4.80;;
10132;SDS011;5106;50.926;7.080;2024-02-21T01:12:21;11.52;;;4.95;;
10132;SDS011;5106;50.926;7.080;2024-02-21T01:14:47;10.68;;;4.55;;
10132;SDS011;5106;50.926;7.080;2024-02-21T01:17:14;7.53;;;4.53;;
10132;SDS011;5106;50.926;7.080;2024-02-21T01:19:40;11.38;;;5.40;;
10132;SDS011;5106;50.926;7.080;2024-02-21T01:22:05;9.15;;;4.70;;
10132;SDS011;5106;50.926;7.080;2024-02-21T01:24:31;9.23;;;4.60;;
10132;SDS011;5106;50.926;7.080;2024-02-21T01:26:56;11.25;;;4.97;;
10132;SDS011;5106;50.926;7.080;2024-02-21T01:29:22;8.30;;;4.30;;
10132;SDS011;5106;50.926;7.080;2024-02-21T01:31:47;9.88;;;4.53;;
10132;SDS011;5106;50.926;7.080;2024-02-21T01:34:13;9.18;;;4.63;;
10132;SDS011;5106;50.926;7.080;2024-02-21T01:36:39;8.30;;;4.32;;
10132;SDS011;5106;50.926;7.080;2024-02-21T01:39:05;8.15;;;4.07;;
10132;SDS011;5106;50.926;7.080;2024-02-21T01:41:30;9.82;;;4.05;;
10132;SDS011;5106;50.926;7.080;2024-02-21T01:43:56;7.63;;;4.18;;
10132;SDS011;5106;50.926;7.080;2024-02-21T01:46:22;9.38;;;4.68;;
10132;SDS011;5106;50.926;7.080;2024-02-21T01:48:53;8.05;;;4.25;;
10132;SDS011;5106;50.926;7.080;2024-02-21T01:51:19;9.40;;;4.50;;
10132;SDS011;5106;50.926;7.080;2024-02-21T01:53:44;7.95;;;3.78;;
10132;SDS011;5106;50.926;7.080;2024-02-21T01:56:12;11.70;;;4.60;;
10132;SDS011;5106;50.926;7.080;2024-02-21T01:58:39;8.57;;;3.97;;
10132;SDS011;5106;50.926;7.080;2024-02-21T02:01:07;10.38;;;3.80;;
10132;SDS011;5106;50.926;7.080;2024-02-21T02:03:33;7.70;;;4.38;;
10132;SDS011;5106;50.926;7.080;2024-02-21T02:05:59;8.88;;;4.40;;
10132;SDS011;5106;50.926;7.080;2024-02-21T02:08:25;6.93;;;4.00;;
10132;SDS011;5106;50.926;7.080;2024-02-21T02:10:51;8.63;;;3.83;;
10132;SDS011;5106;50.926;7.080;2024-02-21T02:13:17;10.43;;;4.30;;
10132;SDS011;5106;50.926;7.080;2024-02-21T02:15:49;7.63;;;4.05;;
10132;SDS011;5106;50.926;7.080;2024-02-21T02:18:16;8.07;;;3.90;;
10132;SDS011;5106;50.926;7.080;2024-02-21T02:20:43;10.00;;;4.55;;
10132;SDS011;5106;50.926;7.080;2024-02-21T02:23:11;9.70;;;4.03;;
10132;SDS011;5106;50.926;7.080;2024-02-21T02:25:39;10.80;;;4.53;;
10132;SDS011;5106;50.926;7.080;2024-02-21T02:28:08;7.78;;;4.35;;
10132;SDS011;5106;50.926;7.080;2024-02-21T02:30:34;7.57;;;4.10;;
10132;SDS011;5106;50.926;7.080;2024-02-21T02:33:01;8.03;;;4.27;;
10132;SDS011;5106;50.926;7.080;2024-02-21T02:35:27;8.38;;;4.20;;
10132;SDS011;5106;50.926;7.080;2024-02-21T02:37:53;9.90;;;4.30;;
10132;SDS011;5106;50.926;7.080;2024-02-21T02:40:19;10.43;;;4.57;;
10132;SDS011;5106;50.926;7.080;2024-02-21T02:42:44;9.97;;;4.57;;
10132;SDS011;5106;50.926;7.080;2024-02-21T02:45:10;7.80;;;4.00;;
10132;SDS011;5106;50.926;7.080;2024-02-21T02:47:36;10.13;;;4.73;;
10132;SDS011;5106;50.926;7.080;2024-02-21T02:50:02;6.90;;;3.97;;
10132;SDS011;5106;50.926;7.080;2024-02-21T02:52:27;9.05;;;4.13;;
10132;SDS011;5106;50.926;7.080;2024-02-21T02:54:53;11.60;;;4.25;;
10132;SDS011;5106;50.926;7.080;2024-02-21T02:57:20;8.27;;;4.10;;
10132;SDS011;5106;50.926;7.080;2024-02-21T02:59:47;11.57;;;4.60;;
10132;SDS011;5106;50.926;7.080;2024-02-21T03:02:13;8.27;;;4.00;;
10132;SDS011;5106;50.926;7.080;2024-02-21T03:04:39;11.77;;;4.60;;
10132;SDS011;5106;50.926;7.080;2024-02-21T03:07:05;9.65;;;4.25;;
10132;SDS011;5106;50.926;7.080;2024-02-21T03:09:31;10.07;;;4.18;;
10132;SDS011;5106;50.926;7.080;2024-02-21T03:11:56;7.35;;;3.55;;
10132;SDS011;5106;50.926;7.080;2024-02-21T03:14:27;8.70;;;3.95;;
10132;SDS011;5106;50.926;7.080;2024-02-21T03:16:53;7.40;;;3.73;;
10132;SDS011;5106;50.926;7.080;2024-02-21T03:19:19;10.90;;;3.90;;
10132;SDS011;5106;50.926;7.080;2024-02-21T03:21:45;7.55;;;3.65;;
10132;SDS011;5106;50.926;7.080;2024-02-21T03:24:10;7.60;;;3.65;;
10132;SDS011;5106;50.926;7.080;2024-02-21T03:26:36;7.68;;;3.80;;
10132;SDS011;5106;50.926;7.080;2024-02-21T03:29:02;6.83;;;3.53;;
10132;SDS011;5106;50.926;7.080;2024-02-21T03:31:28;8.77;;;3.75;;
10132;SDS011;5106;50.926;7.080;2024-02-21T03:33:54;7.70;;;4.03;;
10132;SDS011;5106;50.926;7.080;2024-02-21T03:36:20;10.82;;;3.80;;
10132;SDS011;5106;50.926;7.080;2024-02-21T03:38:45;6.50;;;3.72;;
10132;SDS011;5106;50.926;7.080;2024-02-21T03:41:11;9.32;;;4.18;;
10132;SDS011;5106;50.926;7.080;2024-02-21T03:43:37;7.80;;;4.07;;
10132;SDS011;5106;50.926;7.080;2024-02-21T03:46:03;9.33;;;4.10;;
10132;SDS011;5106;50.926;7.080;2024-02-21T03:48:29;10.87;;;3.97;;
10132;SDS011;5106;50.926;7.080;2024-02-21T03:50:55;7.00;;;3.58;;
10132;SDS011;5106;50.926;7.080;2024-02-21T03:53:20;8.80;;;3.58;;
10132;SDS011;5106;50.926;7.080;2024-02-21T03:55:46;9.40;;;3.80;;
10132;SDS011;5106;50.926;7.080;2024-02-21T03:58:11;7.78;;;3.83;;
10132;SDS011;5106;50.926;7.080;2024-02-21T04:00:37;6.70;;;3.65;;
10132;SDS011;5106;50.926;7.080;2024-02-21T04:03:04;9.07;;;4.32;;
10132;SDS011;5106;50.926;7.080;2024-02-21T04:05:29;6.57;;;3.50;;
10132;SDS011;5106;50.926;7.080;2024-02-21T04:07:55;9.95;;;3.63;;
10132;SDS011;5106;50.926;7.080;2024-02-21T04:10:20;8.57;;;3.90;;
10132;SDS011;5106;50.926;7.080;2024-02-21T04:12:46;7.43;;;3.50;;
10132;SDS011;5106;50.926;7.080;2024-02-21T04:15:12;8.95;;;3.67;;
10132;SDS011;5106;50.926;7.080;2024-02-21T04:17:37;9.40;;;4.00;;
10132;SDS011;5106;50.926;7.080;2024-02-21T04:20:03;9.88;;;4.00;;
10132;SDS011;5106;50.926;7.080;2024-02-21T04:22:30;8.73;;;3.03;;
10132;SDS011;5106;50.926;7.080;2024-02-21T04:24:59;6.60;;;3.70;;
10132;SDS011;5106;50.926;7.080;2024-02-21T04:27:25;10.43;;;3.50;;
10132;SDS011;5106;50.926;7.080;2024-02-21T04:29:50;8.27;;;3.72;;
10132;SDS011;5106;50.926;7.080;2024-02-21T04:32:16;10.13;;;3.55;;
10132;SDS011;5106;50.926;7.080;2024-02-21T04:34:41;12.98;;;3.58;;
10132;SDS011;5106;50.926;7.080;2024-02-21T04:37:07;6.13;;;3.22;;
10132;SDS011;5106;50.926;7.080;2024-02-21T04:39:32;10.77;;;4.10;;
10132;SDS011;5106;50.926;7.080;2024-02-21T04:41:58;8.10;;;3.45;;
10132;SDS011;5106;50.926;7.080;2024-02-21T04:44:23;9.63;;;3.80;;
10132;SDS011;5106;50.926;7.080;2024-02-21T04:46:49;7.77;;;3.50;;
10132;SDS011;5106;50.926;7.080;2024-02-21T04:49:15;6.40;;;3.13;;
10132;SDS011;5106;50.926;7.080;2024-02-21T04:51:40;9.45;;;3.85;;
10132;SDS011;5106;50.926;7.080;2024-02-21T04:54:06;7.85;;;3.58;;
10132;SDS011;5106;50.926;7.080;2024-02-21T04:56:31;7.47;;;3.50;;
10132;SDS011;5106;50.926;7.080;2024-02-21T04:58:57;7.78;;;3.30;;
10132;SDS011;5106;50.926;7.080;2024-02-21T05:01:23;8.60;;;3.63;;
10132;SDS011;5106;50.926;7.080;2024-02-21T05:03:48;8.10;;;3.37;;
10132;SDS011;5106;50.926;7.080;2024-02-21T05:06:14;6.17;;;3.40;;
10132;SDS011;5106;50.926;7.080;2024-02-21T05:08:40;8.93;;;3.73;;
10132;SDS011;5106;50.926;7.080;2024-02-21T05:11:06;7.33;;;3.60;;
10132;SDS011;5106;50.926;7.080;2024-02-21T05:13:32;5.50;;;3.20;;
10132;SDS011;5106;50.926;7.080;2024-02-21T05:15:57;7.90;;;4.07;;
10132;SDS011;5106;50.926;7.080;2024-02-21T05:18:26;10.98;;;3.45;;
10132;SDS011;5106;50.926;7.080;2024-02-21T05:20:52;8.30;;;3.53;;
10132;SDS011;5106;50.926;7.080;2024-02-21T05:23:18;9.25;;;3.38;;
10132;SDS011;5106;50.926;7.080;2024-02-21T05:25:44;7.55;;;3.42;;
10132;SDS011;5106;50.926;7.080;2024-02-21T05:28:09;7.97;;;3.53;;
10132;SDS011;5106;50.926;7.080;2024-02-21T05:30:35;8.02;;;3.47;;
10132;SDS011;5106;50.926;7.080;2024-02-21T05:33:04;9.30;;;3.42;;
10132;SDS011;5106;50.926;7.080;2024-02-21T05:35:30;8.20;;;3.50;;
10132;SDS011;5106;50.926;7.080;2024-02-21T05:37:56;6.28;;;3.03;;
10132;SDS011;5106;50.926;7.080;2024-02-21T05:40:22;9.23;;;3.80;;
10132;SDS011;5106;50.926;7.080;2024-02-21T05:42:48;6.37;;;3.23;;
10132;SDS011;5106;50.926;7.080;2024-02-21T05:45:13;7.53;;;3.60;;
10132;SDS011;5106;50.926;7.080;2024-02-21T05:47:40;5.60;;;3.45;;
10132;SDS011;5106;50.926;7.080;2024-02-21T05:50:06;11.77;;;3.77;;
10132;SDS011;5106;50.926;7.080;2024-02-21T05:52:32;9.32;;;3.92;;
10132;SDS011;5106;50.926;7.080;2024-02-21T05:54:58;8.90;;;3.50;;
10132;SDS011;5106;50.926;7.080;2024-02-21T05:57:23;8.60;;;3.55;;
10132;SDS011;5106;50.926;7.080;2024-02-21T05:59:49;5.45;;;3.30;;
10132;SDS011;5106;50.926;7.080;2024-02-21T06:02:14;6.85;;;3.40;;
10132;SDS011;5106;50.926;7.080;2024-02-21T06:04:40;6.43;;;3.37;;
10132;SDS011;5106;50.926;7.080;2024-02-21T06:07:07;8.18;;;3.33;;
10132;SDS011;5106;50.926;7.080;2024-02-21T06:09:33;4.85;;;3.30;;
10132;SDS011;5106;50.926;7.080;2024-02-21T06:11:59;8.83;;;3.30;;
10132;SDS011;5106;50.926;7.080;2024-02-21T06:14:24;6.20;;;3.30;;
10132;SDS011;5106;50.926;7.080;2024-02-21T06:16:50;8.00;;;3.10;;
10132;SDS011;5106;50.926;7.080;2024-02-21T06:19:16;8.07;;;3.67;;
10132;SDS011;5106;50.926;7.080;2024-02-21T06:21:41;7.10;;;3.38;;
10132;SDS011;5106;50.926;7.080;2024-02-21T06:24:07;5.07;;;3.23;;
10132;SDS011;5106;50.926;7.080;2024-02-21T06:26:32;7.53;;;2.90;;
10132;SDS011;5106;50.926;7.080;2024-02-21T06:28:58;6.00;;;2.80;;
10132;SDS011;5106;50.926;7.080;2024-02-21T06:31:27;8.50;;;3.37;;
10132;SDS011;5106;50.926;7.080;2024-02-21T06:33:53;5.55;;;2.83;;
10132;SDS011;5106;50.926;7.080;2024-02-21T06:36:18;6.57;;;3.28;;
10132;SDS011;5106;50.926;7.080;2024-02-21T06:38:44;7.32;;;3.20;;
10132;SDS011;5106;50.926;7.080;2024-02-21T06:41:16;9.38;;;3.30;;
10132;SDS011;5106;50.926;7.080;2024-02-21T06:43:43;5.60;;;2.67;;
10132;SDS011;5106;50.926;7.080;2024-02-21T06:46:10;6.85;;;3.00;;
10132;SDS011;5106;50.926;7.080;2024-02-21T06:48:36;7.28;;;3.10;;
10132;SDS011;5106;50.926;7.080;2024-02-21T06:51:02;6.60;;;3.42;;
10132;SDS011;5106;50.926;7.080;2024-02-21T06:53:28;5.32;;;2.70;;
10132;SDS011;5106;50.926;7.080;2024-02-21T06:55:53;10.07;;;3.13;;
10132;SDS011;5106;50.926;7.080;2024-02-21T06:58:19;5.88;;;3.10;;
10132;SDS011;5106;50.926;7.080;2024-02-21T07:00:44;7.75;;;3.00;;
10132;SDS011;5106;50.926;7.080;2024-02-21T07:03:10;5.95;;;2.72;;
10132;SDS011;5106;50.926;7.080;2024-02-21T07:05:36;4.97;;;2.60;;
10132;SDS011;5106;50.926;7.080;2024-02-21T07:08:01;7.10;;;3.13;;
10132;SDS011;5106;50.926;7.080;2024-02-21T07:10:28;6.65;;;3.10;;
10132;SDS011;5106;50.926;7.080;2024-02-21T07:12:54;7.10;;;2.92;;
10132;SDS011;5106;50.926;7.080;2024-02-21T07:15:20;5.40;;;2.97;;
10132;SDS011;5106;50.926;7.080;2024-02-21T07:17:46;6.87;;;2.93;;
10132;SDS011;5106;50.926;7.080;2024-02-21T07:20:12;7.80;;;3.22;;
10132;SDS011;5106;50.926;7.080;2024-02-21T07:22:37;7.32;;;3.25;;
10132;SDS011;5106;50.926;7.080;2024-02-21T07:25:03;5.63;;;2.70;;
10132;SDS011;5106;50.926;7.080;2024-02-21T07:27:29;6.55;;;2.80;;
10132;SDS011;5106;50.926;7.080;2024-02-21T07:29:56;7.85;;;2.63;;
10132;SDS011;5106;50.926;7.080;2024-02-21T07:32:22;7.32;;;2.70;;
10132;SDS011;5106;50.926;7.080;2024-02-21T07:34:48;7.22;;;3.10;;
10132;SDS011;5106;50.926;7.080;2024-02-21T07:37:13;11.40;;;3.30;;
10132;SDS011;5106;50.926;7.080;2024-02-21T07:39:39;6.00;;;2.67;;
10132;SDS011;5106;50.926;7.080;2024-02-21T07:42:04;9.77;;;2.97;;
10132;SDS011;5106;50.926;7.080;2024-02-21T07:44:30;4.63;;;3.10;;
10132;SDS011;5106;50.926;7.080;2024-02-21T07:46:57;7.07;;;2.95;;
10132;SDS011;5106;50.926;7.080;2024-02-21T07:49:23;7.20;;;3.20;;
10132;SDS011;5106;50.926;7.080;2024-02-21T07:51:49;7.53;;;3.08;;
10132;SDS011;5106;50.926;7.080;2024-02-21T07:54:15;5.78;;;2.83;;
10132;SDS011;5106;50.926;7.080;2024-02-21T07:56:41;5.03;;;2.55;;
10132;SDS011;5106;50.926;7.080;2024-02-21T07:59:06;6.00;;;3.03;;
10132;SDS011;5106;50.926;7.080;2024-02-21T08:01:32;8.70;;;3.22;;
10132;SDS011;5106;50.926;7.080;2024-02-21T08:03:58;6.47;;;3.35;;
10132;SDS011;5106;50.926;7.080;2024-02-21T08:06:24;8.95;;;3.63;;
10132;SDS011;5106;50.926;7.080;2024-02-21T08:08:50;6.97;;;3.27;;
10132;SDS011;5106;50.926;7.080;2024-02-21T08:11:15;6.15;;;3.13;;
10132;SDS011;5106;50.926;7.080;2024-02-21T08:13:41;8.27;;;3.00;;
10132;SDS011;5106;50.926;7.080;2024-02-21T08:16:06;13.65;;;4.03;;
10132;SDS011;5106;50.926;7.080;2024-02-21T08:18:32;7.27;;;3.23;;
10132;SDS011;5106;50.926;7.080;2024-02-21T08:21:01;6.60;;;3.22;;
10132;SDS011;5106;50.926;7.080;2024-02-21T08:23:28;8.35;;;3.85;;
10132;SDS011;5106;50.926;7.080;2024-02-21T08:25:59;7.10;;;3.57;;
10132;SDS011;5106;50.926;7.080;2024-02-21T08:28:28;11.23;;;3.67;;
10132;SDS011;5106;50.926;7.080;2024-02-21T08:30:53;10.30;;;3.67;;
10132;SDS011;5106;50.926;7.080;2024-02-21T08:33:19;8.35;;;3.63;;
10132;SDS011;5106;50.926;7.080;2024-02-21T08:35:49;8.23;;;3.50;;
10132;SDS011;5106;50.926;7.080;2024-02-21T08:38:15;8.15;;;3.53;;
10132;SDS011;5106;50.926;7.080;2024-02-21T08:40:40;9.15;;;3.65;;
10132;SDS011;5106;50.926;7.080;2024-02-21T08:43:06;9.23;;;4.43;;
10132;SDS011;5106;50.926;7.080;2024-02-21T08:45:31;9.27;;;3.83;;
10132;SDS011;5106;50.926;7.080;2024-02-21T08:47:57;11.43;;;4.00;;
10132;SDS011;5106;50.926;7.080;2024-02-21T08:50:22;9.65;;;3.65;;
10132;SDS011;5106;50.926;7.080;2024-02-21T08:52:48;10.43;;;3.42;;
10132;SDS011;5106;50.926;7.080;2024-02-21T08:55:13;7.43;;;3.80;;
10132;SDS011;5106;50.926;7.080;2024-02-21T08:57:39;9.30;;;3.53;;
10132;SDS011;5106;50.926;7.080;2024-02-21T09:00:05;9.80;;;3.60;;
10132;SDS011;5106;50.926;7.080;2024-02-21T09:02:39;6.53;;;3.42;;
10132;SDS011;5106;50.926;7.080;2024-02-21T09:05:06;12.90;;;3.58;;
10132;SDS011;5106;50.926;7.080;2024-02-21T09:07:31;8.25;;;3.20;;
10132;SDS011;5106;50.926;7.080;2024-02-21T09:09:57;9.73;;;3.53;;
10132;SDS011;5106;50.926;7.080;2024-02-21T09:12:23;7.03;;;3.50;;
10132;SDS011;5106;50.926;7.080;2024-02-21T09:14:49;8.05;;;3.08;;
10132;SDS011;5106;50.926;7.080;2024-02-21T09:17:16;6.63;;;2.80;;
10132;SDS011;5106;50.926;7.080;2024-02-21T09:19:49;8.43;;;3.65;;
10132;SDS011;5106;50.926;7.080;2024-02-21T09:22:15;10.25;;;3.50;;
10132;SDS011;5106;50.926;7.080;2024-02-21T09:24:41;8.80;;;3.47;;
10132;SDS011;5106;50.926;7.080;2024-02-21T09:27:06;8.68;;;3.50;;
10132;SDS011;5106;50.926;7.080;2024-02-21T09:29:32;6.50;;;2.88;;
10132;SDS011;5106;50.926;7.080;2024-02-21T09:32:01;10.80;;;3.33;;
10132;SDS011;5106;50.926;7.080;2024-02-21T09:34:27;9.75;;;3.45;;
10132;SDS011;5106;50.926;7.080;2024-02-21T09:36:53;8.95;;;3.10;;
10132;SDS011;5106;50.926;7.080;2024-02-21T09:39:19;8.25;;;3.10;;
10132;SDS011;5106;50.926;7.080;2024-02-21T09:41:49;12.55;;;3.85;;
10132;SDS011;5106;50.926;7.080;2024-02-21T09:44:20;10.20;;;3.50;;
10132;SDS011;5106;50.926;7.080;2024-02-21T09:46:51;8.95;;;2.90;;
10132;SDS011;5106;50.926;7.080;2024-02-21T09:49:32;6.15;;;2.95;;
10132;SDS011;5106;50.926;7.080;2024-02-21T09:52:00;9.43;;;3.08;;
10132;SDS011;5106;50.926;7.080;2024-02-21T09:54:30;7.07;;;2.60;;
10132;SDS011;5106;50.926;7.080;2024-02-21T09:56:56;6.82;;;2.80;;
10132;SDS011;5106;50.926;7.080;2024-02-21T09:59:22;10.32;;;3.40;;
10132;SDS011;5106;50.926;7.080;2024-02-21T10:01:49;6.65;;;3.22;;
10132;SDS011;5106;50.926;7.080;2024-02-21T10:04:16;22.02;;;4.95;;
10132;SDS011;5106;50.926;7.080;2024-02-21T10:06:41;7.97;;;2.83;;
10132;SDS011;5106;50.926;7.080;2024-02-21T10:09:07;11.02;;;3.40;;
10132;SDS011;5106;50.926;7.080;2024-02-21T10:11:33;9.95;;;3.22;;
10132;SDS011;5106;50.926;7.080;2024-02-21T10:14:02;5.28;;;3.08;;
10132;SDS011;5106;50.926;7.080;2024-02-21T10:16:31;6.07;;;2.97;;
10132;SDS011;5106;50.926;7.080;2024-02-21T10:18:58;9.10;;;2.95;;
10132;SDS011;5106;50.926;7.080;2024-02-21T10:21:24;8.65;;;3.10;;
10132;SDS011;5106;50.926;7.080;2024-02-21T10:23:50;7.22;;;2.78;;
10132;SDS011;5106;50.926;7.080;2024-02-21T10:26:20;6.75;;;3.58;;
10132;SDS011;5106;50.926;7.080;2024-02-21T10:28:46;8.00;;;3.00;;
10132;SDS011;5106;50.926;7.080;2024-02-21T10:31:25;6.75;;;3.15;;
10132;SDS011;5106;50.926;7.080;2024-02-21T10:34:01;8.25;;;2.67;;
10132;SDS011;5106;50.926;7.080;2024-02-21T10:36:30;8.77;;;2.70;;
10132;SDS011;5106;50.926;7.080;2024-02-21T10:38:56;8.32;;;3.15;;
10132;SDS011;5106;50.926;7.080;2024-02-21T10:41:22;6.60;;;3.22;;
10132;SDS011;5106;50.926;7.080;2024-02-21T10:43:49;7.05;;;3.20;;
10132;SDS011;5106;50.926;7.080;2024-02-21T10:46:19;8.15;;;3.15;;
10132;SDS011;5106;50.926;7.080;2024-02-21T10:48:46;9.85;;;3.15;;
10132;SDS011;5106;50.926;7.080;2024-02-21T10:53:47;8.45;;;2.80;;
10132;SDS011;5106;50.926;7.080;2024-02-21T10:56:31;8.02;;;3.30;;
10132;SDS011;5106;50.926;7.080;2024-02-21T10:59:02;10.13;;;3.10;;
10132;SDS011;5106;50.926;7.080;2024-02-21T11:01:29;9.05;;;3.00;;
10132;SDS011;5106;50.926;7.080;2024-02-21T11:03:57;9.00;;;3.60;;
10132;SDS011;5106;50.926;7.080;2024-02-21T11:06:25;7.88;;;3.00;;
10132;SDS011;5106;50.926;7.080;2024-02-21T11:09:09;9.48;;;3.00;;
10132;SDS011;5106;50.926;7.080;2024-02-21T11:11:36;6.40;;;2.75;;
10132;SDS011;5106;50.926;7.080;2024-02-21T11:14:10;8.02;;;3.25;;
10132;SDS011;5106;50.926;7.080;2024-02-21T11:16:37;5.35;;;2.75;;
10132;SDS011;5106;50.926;7.080;2024-02-21T11:19:08;6.53;;;2.97;;
10132;SDS011;5106;50.926;7.080;2024-02-21T11:21:47;6.40;;;2.78;;
10132;SDS011;5106;50.926;7.080;2024-02-21T11:24:13;6.35;;;2.67;;
10132;SDS011;5106;50.926;7.080;2024-02-21T11:26:39;6.30;;;2.75;;
10132;SDS011;5106;50.926;7.080;2024-02-21T11:29:08;8.18;;;3.03;;
10132;SDS011;5106;50.926;7.080;2024-02-21T11:31:39;6.68;;;2.22;;
10132;SDS011;5106;50.926;7.080;2024-02-21T11:34:12;6.07;;;2.40;;
10132;SDS011;5106;50.926;7.080;2024-02-21T11:36:47;6.22;;;2.20;;
10132;SDS011;5106;50.926;7.080;2024-02-21T11:42:03;7.25;;;2.92;;
10132;SDS011;5106;50.926;7.080;2024-02-21T11:44:30;6.72;;;2.33;;
10132;SDS011;5106;50.926;7.080;2024-02-21T11:46:56;5.90;;;2.63;;
10132;SDS011;5106;50.926;7.080;2024-02-21T11:49:24;7.38;;;2.85;;
10132;SDS011;5106;50.926;7.080;2024-02-21T11:51:57;7.05;;;2.33;;
10132;SDS011;5106;50.926;7.080;2024-02-21T11:54:24;6.05;;;2.60;;
10132;SDS011;5106;50.926;7.080;2024-02-21T11:56:49;8.05;;;2.78;;
10132;SDS011;5106;50.926;7.080;2024-02-21T11:59:15;5.78;;;2.65;;
10132;SDS011;5106;50.926;7.080;2024-02-21T12:01:41;6.68;;;2.65;;
10132;SDS011;5106;50.926;7.080;2024-02-21T12:04:07;5.88;;;2.60;;
10132;SDS011;5106;50.926;7.080;2024-02-21T12:06:33;6.28;;;2.72;;
10132;SDS011;5106;50.926;7.080;2024-02-21T12:08:59;6.70;;;2.90;;
10132;SDS011;5106;50.926;7.080;2024-02-21T12:11:24;6.53;;;2.95;;
10132;SDS011;5106;50.926;7.080;2024-02-21T12:14:03;7.40;;;2.25;;
10132;SDS011;5106;50.926;7.080;2024-02-21T12:16:30;7.20;;;2.45;;
10132;SDS011;5106;50.926;7.080;2024-02-21T12:18:57;6.65;;;2.00;;
10132;SDS011;5106;50.926;7.080;2024-02-21T12:21:29;5.40;;;2.55;;
10132;SDS011;5106;50.926;7.080;2024-02-21T12:23:57;4.28;;;2.25;;
10132;SDS011;5106;50.926;7.080;2024-02-21T12:26:24;7.45;;;2.38;;
10132;SDS011;5106;50.926;7.080;2024-02-21T12:28:50;3.92;;;2.20;;
10132;SDS011;5106;50.926;7.080;2024-02-21T12:31:16;6.53;;;2.28;;
10132;SDS011;5106;50.926;7.080;2024-02-21T12:33:42;4.55;;;2.20;;
10132;SDS011;5106;50.926;7.080;2024-02-21T12:36:08;4.18;;;2.30;;
10132;SDS011;5106;50.926;7.080;2024-02-21T12:38:34;6.65;;;2.42;;
10132;SDS011;5106;50.926;7.080;2024-02-21T12:41:00;7.15;;;2.55;;
10132;SDS011;5106;50.926;7.080;2024-02-21T12:43:26;5.05;;;2.40;;
10132;SDS011;5106;50.926;7.080;2024-02-21T12:45:52;6.90;;;2.28;;
10132;SDS011;5106;50.926;7.080;2024-02-21T12:48:17;5.40;;;2.17;;
10132;SDS011;5106;50.926;7.080;2024-02-21T12:50:48;5.78;;;2.58;;
10132;SDS011;5106;50.926;7.080;2024-02-21T12:53:17;4.53;;;2.47;;
10132;SDS011;5106;50.926;7.080;2024-02-21T12:55:46;5.72;;;2.05;;
10132;SDS011;5106;50.926;7.080;2024-02-21T12:58:13;6.50;;;2.20;;
10132;SDS011;5106;50.926;7.080;2024-02-21T13:00:39;7.13;;;2.28;;
10132;SDS011;5106;50.926;7.080;2024-02-21T13:03:05;4.88;;;2.20;;
10132;SDS011;5106;50.926;7.080;2024-02-21T13:05:30;4.72;;;2.22;;
10132;SDS011;5106;50.926;7.080;2024-02-21T13:07:57;5.30;;;2.22;;
10132;SDS011;5106;50.926;7.080;2024-02-21T13:10:26;3.78;;;2.10;;
10132;SDS011;5106;50.926;7.080;2024-02-21T13:12:51;5.32;;;2.40;;
10132;SDS011;5106;50.926;7.080;2024-02-21T13:15:17;6.28;;;2.20;;
10132;SDS011;5106;50.926;7.080;2024-02-21T13:17:45;4.72;;;2.40;;
10132;SDS011;5106;50.926;7.080;2024-02-21T13:20:11;5.85;;;2.20;;
10132;SDS011;5106;50.926;7.080;2024-02-21T13:22:37;4.53;;;2.28;;
10132;SDS011;5106;50.926;7.080;2024-02-21T13:25:03;4.85;;;2.30;;
10132;SDS011;5106;50.926;7.080;2024-02-21T13:27:32;6.70;;;2.42;;
10132;SDS011;5106;50.926;7.080;2024-02-21T13:30:01;7.55;;;2.60;;
10132;SDS011;5106;50.926;7.080;2024-02-21T13:32:30;6.80;;;2.22;;
10132;SDS011;5106;50.926;7.080;2024-02-21T13:34:56;5.13;;;2.40;;
10132;SDS011;5106;50.926;7.080;2024-02-21T13:37:24;7.05;;;2.88;;
10132;SDS011;5106;50.926;7.080;2024-02-21T13:39:51;8.07;;;2.45;;
10132;SDS011;5106;50.926;7.080;2024-02-21T13:42:17;6.10;;;2.30;;
10132;SDS011;5106;50.926;7.080;2024-02-21T13:44:44;7.10;;;2.28;;
10132;SDS011;5106;50.926;7.080;2024-02-21T13:47:09;5.25;;;2.70;;
10132;SDS011;5106;50.926;7.080;2024-02-21T13:49:38;25.05;;;4.00;;
10132;SDS011;5106;50.926;7.080;2024-02-21T13:52:04;6.30;;;2.55;;
10132;SDS011;5106;50.926;7.080;2024-02-21T13:54:30;5.05;;;2.55;;
10132;SDS011;5106;50.926;7.080;2024-02-21T13:56:55;6.80;;;2.70;;
10132;SDS011;5106;50.926;7.080;2024-02-21T13:59:21;6.97;;;2.40;;
10132;SDS011;5106;50.926;7.080;2024-02-21T14:01:46;4.80;;;2.58;;
10132;SDS011;5106;50.926;7.080;2024-02-21T14:04:12;6.57;;;2.22;;
10132;SDS011;5106;50.926;7.080;2024-02-21T14:06:37;4.80;;;2.38;;
10132;SDS011;5106;50.926;7.080;2024-02-21T14:09:08;4.28;;;2.40;;
10132;SDS011;5106;50.926;7.080;2024-02-21T14:11:34;3.88;;;2.50;;
10132;SDS011;5106;50.926;7.080;2024-02-21T14:14:00;6.35;;;2.63;;
10132;SDS011;5106;50.926;7.080;2024-02-21T14:16:25;6.72;;;2.42;;
10132;SDS011;5106;50.926;7.080;2024-02-21T14:18:51;7.75;;;2.65;;
10132;SDS011;5106;50.926;7.080;2024-02-21T14:21:16;5.28;;;2.25;;
10132;SDS011;5106;50.926;7.080;2024-02-21T14:23:42;3.92;;;2.05;;
10132;SDS011;5106;50.926;7.080;2024-02-21T14:26:08;5.57;;;2.08;;
10132;SDS011;5106;50.926;7.080;2024-02-21T14:28:34;5.40;;;2.53;;
10132;SDS011;5106;50.926;7.080;2024-02-21T14:31:00;5.70;;;2.50;;
10132;SDS011;5106;50.926;7.080;2024-02-21T14:33:28;7.55;;;2.70;;
10132;SDS011;5106;50.926;7.080;2024-02-21T14:35:55;7.65;;;2.40;;
10132;SDS011;5106;50.926;7.080;2024-02-21T14:38:21;5.45;;;2.60;;
10132;SDS011;5106;50.926;7.080;2024-02-21T14:40:47;4.95;;;2.03;;
10132;SDS011;5106;50.926;7.080;2024-02-21T14:43:13;7.05;;;2.10;;
10132;SDS011;5106;50.926;7.080;2024-02-21T14:45:39;7.97;;;2.53;;
10132;SDS011;5106;50.926;7.080;2024-02-21T14:48:05;4.15;;;2.00;;
10132;SDS011;5106;50.926;7.080;2024-02-21T14:50:31;5.80;;;2.42;;
10132;SDS011;5106;50.926;7.080;2024-02-21T14:52:56;5.05;;;2.33;;
10132;SDS011;5106;50.926;7.080;2024-02-21T14:55:22;5.47;;;2.40;;
10132;SDS011;5106;50.926;7.080;2024-02-21T14:57:48;5.43;;;2.40;;
10132;SDS011;5106;50.926;7.080;2024-02-21T15:00:14;5.47;;;2.28;;
10132;SDS011;5106;50.926;7.080;2024-02-21T15:02:40;5.00;;;2.05;;